Koushinmaru No.5 — JL6695 — position and weather

sailwx.info

Track history (hours):
 
Tides and Currents Weather Stations Pressure Air Temp Water Temp Dewpoint Dewpoint Depression Visibility Wind Speed Wind Dir Waves Ship Positions

Koushinmaru No.5

Last reported at 2015-Jul-05 04:33 UTC. Time now 2015-Jul-05 06:01 UTC.
Position N 35°37' E 139°58'.

Length 75 m; draft 4.6 m.

Type: Cargo ship. MMSI: 431301703.

Date/timePositionNaut miles runAvg speedWind from/ knotsBaromVisibWave heightAir tempDewpointWater temp
2015-Jul-05 04:33N 35°37' E 139°58'0 0.0
2015-Jul-05 03:33N 35°37' E 139°58'0 0.0
2015-Jul-05 02:33N 35°37' E 139°58'0 0.0
2015-Jul-05 01:32N 35°37' E 139°58'0 0.0
2015-Jul-05 00:33N 35°37' E 139°58'0 0.0
2015-Jul-04 23:33N 35°37' E 139°58'0 0.0
2015-Jul-04 22:33N 35°37' E 139°58'4 3.2
2015-Jul-04 21:10N 35°41' E 139°57'0 0.0
2015-Jul-04 05:33N 35°41' E 139°57'5 4.6
2015-Jul-04 04:33N 35°37' E 139°58'1 0.5
2015-Jul-04 03:33N 35°36' E 139°57'0 0.0
2015-Jul-04 02:33N 35°36' E 139°57'0 0.0
2015-Jul-04 01:33N 35°36' E 139°57'0 0.1
2015-Jul-04 00:33N 35°36' E 139°57'0 0.0
2015-Jul-03 23:33N 35°36' E 139°57'0 0.0
2015-Jul-03 22:32N 35°36' E 139°57'0 0.0
2015-Jul-03 21:28N 35°36' E 139°57'0 0.1
2015-Jul-03 20:33N 35°36' E 139°57'0 0.0
2015-Jul-03 19:33N 35°36' E 139°57'0 0.0
2015-Jul-03 18:33N 35°36' E 139°57'1 1.1
2015-Jul-03 17:33N 35°35' E 139°57'1110.8
2015-Jul-03 16:33N 35°26' E 139°49'10 9.8
2015-Jul-03 15:33N 35°17' E 139°46'1010.0
2015-Jul-03 14:33N 35°07' E 139°45'1110.6
2015-Jul-03 13:33N 34°59' E 139°36'234 9.0
2015-Jul-02 11:33N 34°09' E 134°59'10 8.5
2015-Jul-02 10:21N 34°20' E 134°59'7 9.4
2015-Jul-02 09:33N 34°27' E 135°01'9 9.1
2015-Jul-02 08:33N 34°36' E 135°03'10 9.7
2015-Jul-02 07:32N 34°38' E 134°51'  
2015-Jun-28 04:26N 35°03' E 139°34'910.2
2015-Jun-28 03:33N 35°08' E 139°43'9 9.0
2015-Jun-28 02:34N 35°17' E 139°44'8 8.4
2015-Jun-28 01:34N 35°26' E 139°46'6 6.1
2015-Jun-28 00:33N 35°22' E 139°51'0 0.0
2015-Jun-27 23:34N 35°22' E 139°51'0 0.0
2015-Jun-27 22:34N 35°22' E 139°51'0 0.0
2015-Jun-27 21:33N 35°22' E 139°51'0 0.0
2015-Jun-27 20:34N 35°22' E 139°51'3 3.0
2015-Jun-27 19:34N 35°22' E 139°47'0 0.1
2015-Jun-27 18:34N 35°22' E 139°47'0 0.0
2015-Jun-27 17:33N 35°22' E 139°47'0 0.0
2015-Jun-27 16:34N 35°22' E 139°47'0 0.0
2015-Jun-27 15:34N 35°22' E 139°47'0 0.0
2015-Jun-27 14:34N 35°22' E 139°47'0 0.0
2015-Jun-27 13:34N 35°22' E 139°47'5 5.1
2015-Jun-27 12:34N 35°18' E 139°45'1110.9
2015-Jun-27 11:33N 35°07' E 139°45'1211.8
2015-Jun-27 10:31N 34°58' E 139°34'  
Track history (hours):
 
Tides and Currents Weather Stations Pressure Air Temp Water Temp Dewpoint Dewpoint Depression Visibility Wind Speed Wind Dir Waves Ship Positions

Koushinmaru No.5

Last reported at 2015-Jul-05 04:33 UTC. Time now 2015-Jul-05 06:01 UTC.
Position N 35°37' E 139°58'.

Length 75 m; draft 4.6 m.

Type: Cargo ship. MMSI: 431301703.

Date/timePositionNaut miles runAvg speedWind from/ knotsBaromVisibWave heightAir tempDewpointWater temp
2015-Jul-05 04:33N 35°37' E 139°58'0 0.0
2015-Jul-05 03:33N 35°37' E 139°58'0 0.0
2015-Jul-05 02:33N 35°37' E 139°58'0 0.0
2015-Jul-05 01:32N 35°37' E 139°58'0 0.0
2015-Jul-05 00:33N 35°37' E 139°58'0 0.0
2015-Jul-04 23:33N 35°37' E 139°58'0 0.0
2015-Jul-04 22:33N 35°37' E 139°58'4 3.2
2015-Jul-04 21:10N 35°41' E 139°57'0 0.0
2015-Jul-04 05:33N 35°41' E 139°57'5 4.6
2015-Jul-04 04:33N 35°37' E 139°58'1 0.5
2015-Jul-04 03:33N 35°36' E 139°57'0 0.0
2015-Jul-04 02:33N 35°36' E 139°57'0 0.0
2015-Jul-04 01:33N 35°36' E 139°57'0 0.1
2015-Jul-04 00:33N 35°36' E 139°57'0 0.0
2015-Jul-03 23:33N 35°36' E 139°57'0 0.0
2015-Jul-03 22:32N 35°36' E 139°57'0 0.0
2015-Jul-03 21:28N 35°36' E 139°57'0 0.1
2015-Jul-03 20:33N 35°36' E 139°57'0 0.0
2015-Jul-03 19:33N 35°36' E 139°57'0 0.0
2015-Jul-03 18:33N 35°36' E 139°57'1 1.1
2015-Jul-03 17:33N 35°35' E 139°57'1110.8
2015-Jul-03 16:33N 35°26' E 139°49'10 9.8
2015-Jul-03 15:33N 35°17' E 139°46'1010.0
2015-Jul-03 14:33N 35°07' E 139°45'1110.6
2015-Jul-03 13:33N 34°59' E 139°36'234 9.0
2015-Jul-02 11:33N 34°09' E 134°59'10 8.5
2015-Jul-02 10:21N 34°20' E 134°59'7 9.4
2015-Jul-02 09:33N 34°27' E 135°01'9 9.1
2015-Jul-02 08:33N 34°36' E 135°03'10 9.7
2015-Jul-02 07:32N 34°38' E 134°51'  
2015-Jun-28 04:26N 35°03' E 139°34'910.2
2015-Jun-28 03:33N 35°08' E 139°43'9 9.0
2015-Jun-28 02:34N 35°17' E 139°44'8 8.4
2015-Jun-28 01:34N 35°26' E 139°46'6 6.1
2015-Jun-28 00:33N 35°22' E 139°51'0 0.0
2015-Jun-27 23:34N 35°22' E 139°51'0 0.0
2015-Jun-27 22:34N 35°22' E 139°51'0 0.0
2015-Jun-27 21:33N 35°22' E 139°51'0 0.0
2015-Jun-27 20:34N 35°22' E 139°51'3 3.0
2015-Jun-27 19:34N 35°22' E 139°47'0 0.1
2015-Jun-27 18:34N 35°22' E 139°47'0 0.0
2015-Jun-27 17:33N 35°22' E 139°47'0 0.0
2015-Jun-27 16:34N 35°22' E 139°47'0 0.0
2015-Jun-27 15:34N 35°22' E 139°47'0 0.0
2015-Jun-27 14:34N 35°22' E 139°47'0 0.0
2015-Jun-27 13:34N 35°22' E 139°47'5 5.1
2015-Jun-27 12:34N 35°18' E 139°45'1110.9
2015-Jun-27 11:33N 35°07' E 139°45'1211.8
2015-Jun-27 10:31N 34°58' E 139°34'  

Dump ship's entire track history